createdAt,value
2023-09-27T00:00:12.678Z,101612.94
2023-09-27T00:02:43.572Z,101611.28
2023-09-27T00:05:12.822Z,101596.41
2023-09-27T00:07:42.050Z,101600.53
2023-09-27T00:10:12.247Z,101602.63
2023-09-27T00:12:40.580Z,101604.09
2023-09-27T00:15:12.426Z,101616.81
2023-09-27T00:17:42.411Z,101625.13
2023-09-27T00:20:13.790Z,101627.06
2023-09-27T00:22:41.815Z,101624.19
2023-09-27T00:25:12.758Z,101622.31
2023-09-27T00:27:40.691Z,101625.81
2023-09-27T00:30:10.228Z,101612.59
2023-09-27T00:32:38.313Z,101616.72
2023-09-27T00:35:13.248Z,101615.69
2023-09-27T00:37:41.040Z,101633.91
2023-09-27T00:40:13.785Z,101632.47
2023-09-27T00:42:41.427Z,101620.69
2023-09-27T00:45:10.097Z,101627.53
2023-09-27T00:47:38.408Z,101628.78
2023-09-27T00:50:10.092Z,101625.91
2023-09-27T00:52:39.957Z,101614.09
2023-09-27T00:55:09.527Z,101611.41
2023-09-27T00:57:37.857Z,101612.84
2023-09-27T01:00:06.564Z,101610.78
2023-09-27T01:02:34.765Z,101601.72
2023-09-27T01:05:03.717Z,101605.44
2023-09-27T01:07:32.890Z,101608.34
2023-09-27T01:10:00.483Z,101606.69
2023-09-27T01:12:28.281Z,101607.13
2023-09-27T01:14:57.282Z,101610.06
2023-09-27T01:17:24.929Z,101609.66
2023-09-27T01:19:52.587Z,101607.16
2023-09-27T01:22:20.258Z,101614.41
2023-09-27T01:24:52.378Z,101605.13
2023-09-27T01:27:21.780Z,101609.06
2023-09-27T01:29:49.402Z,101605.56
2023-09-27T01:32:17.090Z,101610.53
2023-09-27T01:34:44.764Z,101613.47
2023-09-27T01:37:12.617Z,101618.00
2023-09-27T01:39:40.182Z,101608.09
2023-09-27T01:42:11.981Z,101604.75
2023-09-27T01:44:39.763Z,101589.06
2023-09-27T01:47:07.645Z,101589.06
2023-09-27T01:49:35.356Z,101587.63
2023-09-27T01:52:03.051Z,101596.13
2023-09-27T01:54:30.646Z,101597.97
2023-09-27T01:56:58.290Z,101597.38
2023-09-27T01:59:27.367Z,101594.91
2023-09-27T02:01:55.145Z,101594.09
2023-09-27T02:04:22.857Z,101597.78
2023-09-27T02:06:50.493Z,101603.59
2023-09-27T02:09:18.148Z,101597.41
2023-09-27T02:11:45.783Z,101611.91
2023-09-27T02:14:13.465Z,101603.25
2023-09-27T02:16:44.674Z,101606.38
2023-09-27T02:19:12.284Z,101608.00
2023-09-27T02:21:40.867Z,101615.66
2023-09-27T02:24:10.733Z,101617.31
2023-09-27T02:26:38.465Z,101625.63
2023-09-27T02:29:07.957Z,101634.09
2023-09-27T02:31:36.016Z,101631.00
2023-09-27T02:34:05.021Z,101637.22
2023-09-27T02:36:32.764Z,101642.59
2023-09-27T02:39:00.347Z,101646.34
2023-09-27T02:41:28.040Z,101645.50
2023-09-27T02:43:55.706Z,101640.13
2023-09-27T02:46:24.852Z,101637.66
2023-09-27T02:48:52.649Z,101640.56
2023-09-27T02:51:23.078Z,101634.53
2023-09-27T02:53:51.309Z,101636.03
2023-09-27T02:56:19.310Z,101630.66
2023-09-27T02:58:47.143Z,101624.44
2023-09-27T03:01:14.787Z,101628.56
2023-09-27T03:03:42.505Z,101621.56
2023-09-27T03:06:14.298Z,101630.22
2023-09-27T03:08:44.207Z,101636.03
2023-09-27T03:11:11.973Z,101637.69
2023-09-27T03:13:39.710Z,101641.81
2023-09-27T03:16:07.509Z,101643.88
2023-09-27T03:18:35.269Z,101645.75
2023-09-27T03:21:02.941Z,101645.75
2023-09-27T03:23:31.304Z,101643.47
2023-09-27T03:26:00.347Z,101636.66
2023-09-27T03:28:28.059Z,101638.47
2023-09-27T03:30:55.683Z,101640.38
2023-09-27T03:33:23.826Z,101639.53
2023-09-27T03:35:52.531Z,101643.88
2023-09-27T03:38:20.294Z,101645.28
2023-09-27T03:40:49.427Z,101645.72
2023-09-27T03:43:18.792Z,101654.59
2023-09-27T03:45:46.568Z,101652.31
2023-09-27T03:48:14.284Z,101645.28
2023-09-27T03:50:42.018Z,101639.13
2023-09-27T03:53:09.785Z,101636.44
2023-09-27T03:55:37.465Z,101642.41
2023-09-27T03:58:05.366Z,101650.47
2023-09-27T04:00:34.516Z,101653.78
2023-09-27T04:03:02.262Z,101653.97
2023-09-27T04:05:30.620Z,101653.38
2023-09-27T04:07:59.842Z,101652.31
2023-09-27T04:10:29.604Z,101639.34
2023-09-27T04:12:57.634Z,101647.41
2023-09-27T04:15:25.425Z,101644.28
2023-09-27T04:17:54.483Z,101654.19
2023-09-27T04:20:22.917Z,101657.91
2023-09-27T04:22:51.476Z,101664.50
2023-09-27T04:25:20.221Z,101663.25
2023-09-27T04:27:50.852Z,101655.00
2023-09-27T04:30:22.700Z,101652.13
2023-09-27T04:32:52.967Z,101652.94
2023-09-27T04:35:23.187Z,101657.09
2023-09-27T04:37:50.988Z,101656.66
2023-09-27T04:40:18.886Z,101650.06
2023-09-27T04:42:47.762Z,101651.28
2023-09-27T04:45:16.007Z,101646.31
2023-09-27T04:47:46.150Z,101645.09
2023-09-27T04:50:14.747Z,101645.91
2023-09-27T04:52:43.905Z,101649.41
2023-09-27T04:55:13.613Z,101643.84
2023-09-27T04:57:41.639Z,101647.16
2023-09-27T05:00:15.571Z,101650.47
2023-09-27T05:02:43.573Z,101646.31
2023-09-27T05:05:11.674Z,101643.03
2023-09-27T05:07:41.190Z,101643.44
2023-09-27T05:10:12.132Z,101642.56
2023-09-27T05:12:40.485Z,101657.47
2023-09-27T05:15:09.624Z,101656.41
2023-09-27T05:17:37.593Z,101658.50
2023-09-27T05:20:11.226Z,101657.06
2023-09-27T05:22:39.302Z,101658.28
2023-09-27T05:25:08.464Z,101668.63
2023-09-27T05:27:37.614Z,101661.19
2023-09-27T05:30:08.701Z,101661.38
2023-09-27T05:32:36.570Z,101657.06
2023-09-27T05:35:06.093Z,101659.94
2023-09-27T05:37:34.051Z,101669.88
2023-09-27T05:40:05.378Z,101668.63
2023-09-27T05:42:32.979Z,101666.53
2023-09-27T05:45:01.953Z,101661.19
2023-09-27T05:47:29.735Z,101668.22
2023-09-27T05:49:57.339Z,101661.59
2023-09-27T05:52:25.020Z,101654.38
2023-09-27T05:54:52.649Z,101655.41
2023-09-27T05:57:20.384Z,101657.50
2023-09-27T05:59:48.368Z,101652.72
2023-09-27T06:02:18.382Z,101649.44
2023-09-27T06:04:46.251Z,101653.56
2023-09-27T06:07:15.075Z,101654.00
2023-09-27T06:09:43.336Z,101649.00
2023-09-27T06:12:12.091Z,101652.13
2023-09-27T06:14:42.841Z,101646.34
2023-09-27T06:17:11.389Z,101650.47
2023-09-27T06:19:40.415Z,101643.66
2023-09-27T06:22:08.091Z,101657.50
2023-09-27T06:24:35.692Z,101669.69
2023-09-27T06:27:03.845Z,101667.00
2023-09-27T06:29:31.550Z,101684.41
2023-09-27T06:31:59.696Z,101681.28
2023-09-27T06:34:27.521Z,101687.06
2023-09-27T06:36:57.692Z,101673.84
2023-09-27T06:39:26.105Z,101667.66
2023-09-27T06:41:54.103Z,101668.88
2023-09-27T06:44:21.978Z,101671.31
2023-09-27T06:46:50.793Z,101676.91
2023-09-27T06:49:18.442Z,101674.84
2023-09-27T06:51:46.707Z,101674.19
2023-09-27T06:54:15.648Z,101670.66
2023-09-27T06:56:43.621Z,101670.66
2023-09-27T06:59:12.169Z,101682.41
2023-09-27T07:01:42.202Z,101684.25
2023-09-27T07:04:10.114Z,101688.78
2023-09-27T07:06:37.771Z,101693.94
2023-09-27T07:09:07.820Z,101688.53
2023-09-27T07:11:37.282Z,101690.19
2023-09-27T07:14:04.918Z,101694.25
2023-09-27T07:16:34.505Z,101702.09
2023-09-27T07:19:06.807Z,101709.72
2023-09-27T07:21:35.268Z,101710.75
2023-09-27T07:24:04.394Z,101713.38
2023-09-27T07:26:32.080Z,101710.47
2023-09-27T07:29:01.622Z,101715.78
2023-09-27T07:31:30.788Z,101718.44
2023-09-27T07:33:58.402Z,101715.72
2023-09-27T07:36:26.226Z,101720.81
2023-09-27T07:38:56.578Z,101718.09
2023-09-27T07:41:24.204Z,101731.09
2023-09-27T07:43:52.396Z,101734.94
2023-09-27T07:46:22.954Z,101734.44
2023-09-27T07:48:50.651Z,101726.41
2023-09-27T07:51:19.444Z,101735.06
2023-09-27T07:53:47.552Z,101741.22
2023-09-27T07:56:21.049Z,101755.88
2023-09-27T07:58:50.411Z,101757.53
2023-09-27T08:01:21.721Z,101757.41
2023-09-27T08:03:53.096Z,101755.16
2023-09-27T08:06:21.600Z,101761.44
2023-09-27T08:08:49.471Z,101769.81
2023-09-27T08:11:17.481Z,101759.31
2023-09-27T08:13:45.552Z,101770.41
2023-09-27T08:16:13.162Z,101774.00
2023-09-27T08:18:41.571Z,101781.56
2023-09-27T08:21:10.844Z,101777.13
2023-09-27T08:23:38.744Z,101775.75
2023-09-27T08:26:06.582Z,101773.34
2023-09-27T08:28:34.533Z,101770.28
2023-09-27T08:31:05.994Z,101773.72
2023-09-27T08:33:34.083Z,101778.91
2023-09-27T08:36:01.854Z,101774.22
2023-09-27T08:38:30.933Z,101782.81
2023-09-27T08:40:58.602Z,101785.41
2023-09-27T08:43:29.700Z,101778.63
2023-09-27T08:45:58.464Z,101760.88
2023-09-27T08:48:31.630Z,101743.56
2023-09-27T08:51:04.337Z,101744.63
2023-09-27T08:53:36.068Z,101739.91
2023-09-27T08:56:05.389Z,101732.03
2023-09-27T08:58:35.174Z,101719.56
2023-09-27T09:01:04.517Z,101719.84
2023-09-27T09:03:34.320Z,101719.78
2023-09-27T09:06:06.029Z,101714.00
2023-09-27T09:08:55.006Z,101712.44
2023-09-27T09:11:24.250Z,101711.50
2023-09-27T09:13:59.772Z,101703.22
2023-09-27T09:16:27.533Z,101688.16
2023-09-27T09:18:56.684Z,101693.78
2023-09-27T09:21:26.653Z,101685.72
2023-09-27T09:23:56.192Z,101685.75
2023-09-27T09:26:29.158Z,101687.97
2023-09-27T09:28:58.282Z,101687.56
2023-09-27T09:31:28.597Z,101688.50
2023-09-27T09:34:05.663Z,101699.41
2023-09-27T09:36:33.904Z,101698.31
2023-09-27T09:39:07.402Z,101694.53
2023-09-27T09:41:48.593Z,101697.53
2023-09-27T09:44:20.782Z,101705.00
2023-09-27T09:46:50.178Z,101708.16
2023-09-27T09:49:18.214Z,101709.88
2023-09-27T09:51:49.269Z,101699.88
2023-09-27T09:54:29.414Z,101698.00
2023-09-27T09:57:07.150Z,101692.13
2023-09-27T09:59:58.370Z,101687.84
2023-09-27T10:02:29.717Z,101699.59
2023-09-27T10:05:00.255Z,101696.41
2023-09-27T10:07:30.126Z,101703.69
2023-09-27T10:09:59.932Z,101697.75
2023-09-27T10:12:29.390Z,101700.97
2023-09-27T10:14:57.555Z,101696.59
2023-09-27T10:17:27.825Z,101702.03
2023-09-27T10:20:13.949Z,101696.66
2023-09-27T10:22:44.426Z,101706.50
2023-09-27T10:25:35.776Z,101713.53
2023-09-27T10:28:08.934Z,101722.75
2023-09-27T10:31:13.229Z,101715.97
2023-09-27T10:33:41.839Z,101723.94
2023-09-27T10:36:31.889Z,101722.25
2023-09-27T10:39:06.425Z,101725.13
2023-09-27T10:41:49.641Z,101727.59
2023-09-27T10:44:31.209Z,101728.41
2023-09-27T10:47:00.395Z,101729.22
2023-09-27T10:49:31.915Z,101731.50
2023-09-27T10:52:06.898Z,101724.50
2023-09-27T10:54:36.388Z,101725.09
2023-09-27T10:57:05.694Z,101716.19
2023-09-27T10:59:33.572Z,101726.41
2023-09-27T11:02:03.906Z,101717.78
2023-09-27T11:04:33.786Z,101706.84
2023-09-27T11:07:01.785Z,101705.81
2023-09-27T11:09:30.391Z,101703.63
2023-09-27T11:12:00.247Z,101708.88
2023-09-27T11:14:32.580Z,101708.34
2023-09-27T11:17:16.749Z,101708.09
2023-09-27T11:19:44.488Z,101703.78
2023-09-27T11:22:12.139Z,101703.84
2023-09-27T11:24:41.304Z,101696.22
2023-09-27T11:27:09.573Z,101689.47
2023-09-27T11:29:38.688Z,101690.38
2023-09-27T11:32:06.556Z,101686.09
2023-09-27T11:34:34.325Z,101686.69
2023-09-27T11:37:04.175Z,101680.16
2023-09-27T11:39:49.559Z,101680.94
2023-09-27T11:42:22.725Z,101682.75
2023-09-27T11:45:05.363Z,101681.03
2023-09-27T11:47:33.907Z,101678.63
2023-09-27T11:50:01.917Z,101668.06
2023-09-27T11:52:29.557Z,101664.88
2023-09-27T11:54:57.191Z,101667.09
2023-09-27T11:57:25.152Z,101664.66
2023-09-27T11:59:52.883Z,101657.03
2023-09-27T12:02:28.048Z,101660.31
2023-09-27T12:04:57.467Z,101654.06
2023-09-27T12:07:25.618Z,101655.13
2023-09-27T12:09:53.320Z,101658.38
2023-09-27T12:12:20.987Z,101654.84
2023-09-27T12:14:50.519Z,101653.22
2023-09-27T12:17:18.366Z,101642.03
2023-09-27T12:19:47.312Z,101645.59
2023-09-27T12:22:14.986Z,101643.16
2023-09-27T12:24:43.020Z,101650.81
2023-09-27T12:27:10.636Z,101649.75
2023-09-27T12:29:38.999Z,101650.09
2023-09-27T12:32:06.656Z,101658.50
2023-09-27T12:34:34.459Z,101653.63
2023-09-27T12:37:03.961Z,101653.88
2023-09-27T12:39:31.622Z,101646.75
2023-09-27T12:42:01.236Z,101634.75
2023-09-27T12:44:28.901Z,101631.47
2023-09-27T12:46:56.764Z,101625.72
2023-09-27T12:49:26.305Z,101624.63
2023-09-27T12:51:54.007Z,101629.28
2023-09-27T12:54:23.870Z,101627.09
2023-09-27T12:56:51.564Z,101625.72
2023-09-27T12:59:19.390Z,101620.53
2023-09-27T13:01:47.208Z,101618.63
2023-09-27T13:04:14.882Z,101620.28
2023-09-27T13:06:42.705Z,101618.38
2023-09-27T13:09:10.839Z,101619.19
2023-09-27T13:11:39.826Z,101617.00
2023-09-27T13:14:07.464Z,101603.94
2023-09-27T13:16:35.172Z,101603.38
2023-09-27T13:19:02.800Z,101594.13
2023-09-27T13:21:30.402Z,101603.97
2023-09-27T13:23:58.149Z,101605.03
2023-09-27T13:26:27.198Z,101600.16
2023-09-27T13:28:56.724Z,101599.59
2023-09-27T13:31:25.108Z,101584.06
2023-09-27T13:34:07.646Z,101586.50
2023-09-27T13:36:38.724Z,101587.59
2023-09-27T13:39:06.941Z,101571.22
2023-09-27T13:41:41.842Z,101563.88
2023-09-27T13:44:11.858Z,101561.97
2023-09-27T13:46:39.753Z,101573.97
2023-09-27T13:49:07.917Z,101570.16
2023-09-27T13:51:37.390Z,101555.97
2023-09-27T13:54:05.637Z,101545.06
2023-09-27T13:56:33.441Z,101540.69
2023-09-27T13:59:01.289Z,101531.72
2023-09-27T14:01:31.452Z,101531.72
2023-09-27T14:04:00.172Z,101525.44
2023-09-27T14:06:28.100Z,101534.69
2023-09-27T14:08:56.162Z,101534.44
2023-09-27T14:11:24.723Z,101539.88
2023-09-27T14:13:53.589Z,101538.25
2023-09-27T14:16:21.794Z,101531.44
2023-09-27T14:18:50.920Z,101532.00
2023-09-27T14:21:18.525Z,101536.34
2023-09-27T14:23:46.548Z,101535.25
2023-09-27T14:26:14.229Z,101533.91
2023-09-27T14:28:41.920Z,101525.44
2023-09-27T14:31:09.599Z,101531.44
2023-09-27T14:33:37.530Z,101529.78
2023-09-27T14:36:07.064Z,101524.34
2023-09-27T14:38:36.124Z,101527.63
2023-09-27T14:41:08.823Z,101519.16
2023-09-27T14:43:39.282Z,101509.63
2023-09-27T14:46:11.217Z,101510.44
2023-09-27T14:48:39.512Z,101512.91
2023-09-27T14:51:12.486Z,101510.16
2023-09-27T14:53:41.968Z,101513.44
2023-09-27T14:56:11.358Z,101509.88
2023-09-27T14:58:39.197Z,101504.72
2023-09-27T15:01:06.988Z,101504.19
2023-09-27T15:03:34.792Z,101508.56
2023-09-27T15:06:03.135Z,101514.53
2023-09-27T15:08:32.449Z,101513.44
2023-09-27T15:11:00.369Z,101513.97
2023-09-27T15:13:28.602Z,101500.34
2023-09-27T15:15:56.356Z,101487.31
2023-09-27T15:18:26.044Z,101489.47
2023-09-27T15:20:54.647Z,101501.47
2023-09-27T15:23:22.503Z,101497.63
2023-09-27T15:25:51.817Z,101501.44
2023-09-27T15:28:19.646Z,101501.16
2023-09-27T15:30:47.787Z,101506.03
2023-09-27T15:33:15.530Z,101502.47
2023-09-27T15:35:52.748Z,101499.81
2023-09-27T15:38:20.615Z,101492.13
2023-09-27T15:40:48.332Z,101492.66
2023-09-27T15:43:18.410Z,101479.34
2023-09-27T15:45:59.168Z,101476.88
2023-09-27T15:48:31.089Z,101479.03
2023-09-27T15:51:00.317Z,101475.25
2023-09-27T15:53:30.726Z,101464.06
2023-09-27T15:55:58.435Z,101456.69
2023-09-27T15:58:27.685Z,101466.50
2023-09-27T16:00:55.353Z,101474.41
2023-09-27T16:03:23.145Z,101469.75
2023-09-27T16:05:51.503Z,101462.38
2023-09-27T16:08:21.765Z,101458.31
2023-09-27T16:10:55.120Z,101465.41
2023-09-27T16:13:24.136Z,101461.03
2023-09-27T16:15:53.992Z,101461.84
2023-09-27T16:18:22.566Z,101457.47
2023-09-27T16:20:50.330Z,101457.19
2023-09-27T16:23:18.497Z,101464.22
2023-09-27T16:25:49.363Z,101450.09
2023-09-27T16:28:17.510Z,101447.84
2023-09-27T16:30:45.796Z,101445.13
2023-09-27T16:33:14.880Z,101448.31
2023-09-27T16:35:42.670Z,101447.19
2023-09-27T16:38:10.680Z,101450.16
2023-09-27T16:40:38.656Z,101443.31
2023-09-27T16:43:06.502Z,101455.72
2023-09-27T16:45:36.221Z,101454.56
2023-09-27T16:48:04.183Z,101463.69
2023-09-27T16:50:33.194Z,101464.09
2023-09-27T16:53:00.881Z,101451.50
2023-09-27T16:55:28.806Z,101450.34
2023-09-27T16:57:56.751Z,101441.34
2023-09-27T17:00:24.422Z,101440.19
2023-09-27T17:02:52.102Z,101434.44
2023-09-27T17:05:19.911Z,101430.56
2023-09-27T17:07:49.123Z,101435.94
2023-09-27T17:10:16.752Z,101435.91
2023-09-27T17:12:44.418Z,101438.53
2023-09-27T17:15:12.996Z,101438.50
2023-09-27T17:17:40.624Z,101439.78
2023-09-27T17:20:09.614Z,101438.66
2023-09-27T17:22:37.236Z,101440.81
2023-09-27T17:25:08.982Z,101430.13
2023-09-27T17:27:36.591Z,101434.91
2023-09-27T17:30:04.846Z,101439.22
2023-09-27T17:32:32.688Z,101431.00
2023-09-27T17:35:00.568Z,101435.31
2023-09-27T17:37:28.395Z,101432.53
2023-09-27T17:39:56.308Z,101435.44
2023-09-27T17:42:25.579Z,101424.69
2023-09-27T17:44:53.166Z,101425.41
2023-09-27T17:47:20.923Z,101422.56
2023-09-27T17:49:48.547Z,101418.56
2023-09-27T17:52:16.139Z,101425.63
2023-09-27T17:54:43.971Z,101416.28
2023-09-27T17:57:11.590Z,101420.22
2023-09-27T17:59:42.241Z,101413.91
2023-09-27T18:02:11.098Z,101412.28
2023-09-27T18:04:39.771Z,101410.38
2023-09-27T18:07:07.525Z,101406.84
2023-09-27T18:09:36.568Z,101411.22
2023-09-27T18:12:04.893Z,101408.72
2023-09-27T18:14:32.496Z,101409.00
2023-09-27T18:17:00.825Z,101400.06
2023-09-27T18:19:28.588Z,101397.00
2023-09-27T18:21:56.299Z,101404.00
2023-09-27T18:24:25.766Z,101399.56
2023-09-27T18:26:53.532Z,101404.31
2023-09-27T18:29:21.321Z,101400.03
2023-09-27T18:31:49.171Z,101397.91
2023-09-27T18:34:18.193Z,101392.44
2023-09-27T18:36:45.869Z,101392.50
2023-09-27T18:39:14.564Z,101396.75
2023-09-27T18:41:42.395Z,101400.75
2023-09-27T18:44:10.240Z,101389.94
2023-09-27T18:46:38.119Z,101402.72
2023-09-27T18:49:05.974Z,101393.56
2023-09-27T18:51:34.929Z,101393.34
2023-09-27T18:54:02.725Z,101386.34
2023-09-27T18:56:30.289Z,101383.91
2023-09-27T18:59:00.019Z,101378.97
2023-09-27T19:01:28.067Z,101381.09
2023-09-27T19:03:56.311Z,101377.00
2023-09-27T19:06:24.836Z,101375.69
2023-09-27T19:08:55.051Z,101370.28
2023-09-27T19:11:22.861Z,101365.34
2023-09-27T19:13:50.630Z,101369.97
2023-09-27T19:16:18.408Z,101365.03
2023-09-27T19:18:46.133Z,101365.28
2023-09-27T19:21:13.739Z,101361.44
2023-09-27T19:23:41.296Z,101362.13
2023-09-27T19:26:10.646Z,101357.47
2023-09-27T19:28:38.388Z,101357.47
2023-09-27T19:31:09.073Z,101356.53
2023-09-27T19:33:42.336Z,101348.69
2023-09-27T19:36:13.904Z,101352.69
2023-09-27T19:38:41.898Z,101339.41
2023-09-27T19:41:10.861Z,101341.53
2023-09-27T19:43:38.984Z,101341.78
2023-09-27T19:46:06.682Z,101339.56
2023-09-27T19:48:41.720Z,101338.13
2023-09-27T19:51:10.217Z,101331.13
2023-09-27T19:53:37.931Z,101334.31
2023-09-27T19:56:06.251Z,101330.44
2023-09-27T19:58:35.317Z,101333.94
2023-09-27T20:01:03.015Z,101337.72
2023-09-27T20:03:30.796Z,101337.13
2023-09-27T20:05:58.574Z,101330.91
2023-09-27T20:08:27.310Z,101323.63
2023-09-27T20:10:55.140Z,101321.97
2023-09-27T20:13:22.816Z,101319.06
2023-09-27T20:15:51.776Z,101312.81
2023-09-27T20:18:19.459Z,101314.69
2023-09-27T20:20:47.568Z,101306.59
2023-09-27T20:23:15.133Z,101304.16
2023-09-27T20:25:42.809Z,101306.03
2023-09-27T20:28:10.421Z,101307.06
2023-09-27T20:30:38.365Z,101304.28
2023-09-27T20:33:07.373Z,101307.22
2023-09-27T20:35:35.803Z,101307.47
2023-09-27T20:38:08.941Z,101302.28
2023-09-27T20:40:37.343Z,101305.25
2023-09-27T20:43:05.685Z,101303.38
2023-09-27T20:45:33.656Z,101298.53
2023-09-27T20:48:01.699Z,101293.97
2023-09-27T20:50:30.880Z,101284.81
2023-09-27T20:52:58.474Z,101281.03
2023-09-27T20:55:26.203Z,101280.53
2023-09-27T20:57:54.150Z,101280.88
2023-09-27T21:00:23.578Z,101281.22
2023-09-27T21:02:51.392Z,101277.47
2023-09-27T21:05:18.991Z,101269.47
2023-09-27T21:07:49.570Z,101260.63
2023-09-27T21:10:17.311Z,101253.09
2023-09-27T21:12:44.964Z,101250.97
2023-09-27T21:15:12.731Z,101246.97
2023-09-27T21:17:40.399Z,101243.78
2023-09-27T21:20:09.739Z,101241.16
2023-09-27T21:22:37.566Z,101231.97
2023-09-27T21:25:07.793Z,101241.47
2023-09-27T21:27:35.950Z,101233.63
2023-09-27T21:30:04.787Z,101236.91
2023-09-27T21:32:32.545Z,101239.13
2023-09-27T21:35:00.230Z,101234.75
2023-09-27T21:37:28.101Z,101236.41
2023-09-27T21:39:55.712Z,101242.31
2023-09-27T21:42:24.633Z,101242.88
2023-09-27T21:44:52.191Z,101233.63
2023-09-27T21:47:19.762Z,101238.44
2023-09-27T21:49:47.532Z,101237.06
2023-09-27T21:52:15.118Z,101235.09
2023-09-27T21:54:42.726Z,101230.19
2023-09-27T21:57:10.362Z,101227.97
2023-09-27T21:59:39.347Z,101222.44
2023-09-27T22:02:06.978Z,101220.25
2023-09-27T22:04:34.827Z,101215.91
2023-09-27T22:07:02.402Z,101212.66
2023-09-27T22:09:33.674Z,101207.72
2023-09-27T22:12:01.229Z,101203.38
2023-09-27T22:14:28.877Z,101197.41
2023-09-27T22:17:03.801Z,101206.78
2023-09-27T22:19:31.495Z,101202.13
2023-09-27T22:22:00.352Z,101195.81
2023-09-27T22:24:31.414Z,101201.69
2023-09-27T22:26:59.240Z,101204.63
2023-09-27T22:29:26.848Z,101192.69
2023-09-27T22:31:58.741Z,101190.47
2023-09-27T22:34:37.936Z,101183.88
2023-09-27T22:37:05.804Z,101183.31
2023-09-27T22:39:32.705Z,101182.75
2023-09-27T22:42:03.507Z,101177.81
2023-09-27T22:44:33.928Z,101189.09
2023-09-27T22:47:01.683Z,101173.94
2023-09-27T22:49:30.952Z,101167.38
2023-09-27T22:51:58.530Z,101167.66
2023-09-27T22:54:26.118Z,101155.44
2023-09-27T22:56:54.517Z,101148.63
2023-09-27T22:59:23.593Z,101141.84
2023-09-27T23:01:55.860Z,101139.13
2023-09-27T23:04:24.386Z,101124.84
2023-09-27T23:07:02.279Z,101122.16
2023-09-27T23:09:35.434Z,101117.31
2023-09-27T23:12:17.452Z,101113.81
2023-09-27T23:14:59.173Z,101111.34
2023-09-27T23:17:30.942Z,101100.78
2023-09-27T23:19:57.747Z,101102.66
2023-09-27T23:22:27.691Z,101103.75
2023-09-27T23:25:26.777Z,101099.41
2023-09-27T23:27:54.347Z,101098.56
2023-09-27T23:30:26.299Z,101099.06
2023-09-27T23:32:53.910Z,101097.41
2023-09-27T23:35:20.601Z,101090.41
2023-09-27T23:37:49.583Z,101092.84
2023-09-27T23:40:18.916Z,101081.22
2023-09-27T23:42:48.111Z,101093.66
2023-09-27T23:45:15.391Z,101088.59
2023-09-27T23:47:45.882Z,101090.00
2023-09-27T23:50:17.029Z,101097.59
2023-09-27T23:52:46.933Z,101099.25
2023-09-27T23:55:18.064Z,101093.38
2023-09-27T23:57:48.366Z,101092.97
